sensor_id;sensor_type;location;lat;lon;timestamp;temperature;humidity
22698;DHT22;11516;51.612;7.510;2022-11-14T00:01:57;5.00;99.90
22698;DHT22;11516;51.612;7.510;2022-11-14T00:04:22;5.00;99.90
22698;DHT22;11516;51.612;7.510;2022-11-14T00:06:48;5.00;99.90
22698;DHT22;11516;51.612;7.510;2022-11-14T00:09:13;4.90;99.90
22698;DHT22;11516;51.612;7.510;2022-11-14T00:11:39;4.90;99.90
22698;DHT22;11516;51.612;7.510;2022-11-14T00:14:05;4.80;99.90
22698;DHT22;11516;51.612;7.510;2022-11-14T00:16:30;4.80;99.90
22698;DHT22;11516;51.612;7.510;2022-11-14T00:18:56;4.80;99.90
22698;DHT22;11516;51.612;7.510;2022-11-14T00:21:21;4.80;99.90
22698;DHT22;11516;51.612;7.510;2022-11-14T00:23:47;4.70;99.90
22698;DHT22;11516;51.612;7.510;2022-11-14T00:26:13;4.70;99.90
22698;DHT22;11516;51.612;7.510;2022-11-14T00:28:38;4.70;99.90
22698;DHT22;11516;51.612;7.510;2022-11-14T00:31:04;4.70;99.90
22698;DHT22;11516;51.612;7.510;2022-11-14T00:33:30;4.60;99.90
22698;DHT22;11516;51.612;7.510;2022-11-14T00:35:56;4.50;99.90
22698;DHT22;11516;51.612;7.510;2022-11-14T00:38:22;4.50;99.90
22698;DHT22;11516;51.612;7.510;2022-11-14T00:40:48;4.50;99.90
22698;DHT22;11516;51.612;7.510;2022-11-14T00:43:13;4.40;99.90
22698;DHT22;11516;51.612;7.510;2022-11-14T00:45:41;4.40;99.90
22698;DHT22;11516;51.612;7.510;2022-11-14T00:48:06;4.30;99.90
22698;DHT22;11516;51.612;7.510;2022-11-14T00:50:32;4.20;99.90
22698;DHT22;11516;51.612;7.510;2022-11-14T00:52:57;4.20;99.90
22698;DHT22;11516;51.612;7.510;2022-11-14T00:55:23;4.10;99.90
22698;DHT22;11516;51.612;7.510;2022-11-14T00:57:48;4.10;99.90
22698;DHT22;11516;51.612;7.510;2022-11-14T01:00:14;4.10;99.90
22698;DHT22;11516;51.612;7.510;2022-11-14T01:02:39;4.10;99.90
22698;DHT22;11516;51.612;7.510;2022-11-14T01:05:05;4.10;99.90
22698;DHT22;11516;51.612;7.510;2022-11-14T01:07:31;4.10;99.90
22698;DHT22;11516;51.612;7.510;2022-11-14T01:09:56;4.10;99.90
22698;DHT22;11516;51.612;7.510;2022-11-14T01:12:22;4.00;99.90
22698;DHT22;11516;51.612;7.510;2022-11-14T01:14:47;4.00;99.90
22698;DHT22;11516;51.612;7.510;2022-11-14T01:17:13;3.90;99.90
22698;DHT22;11516;51.612;7.510;2022-11-14T01:19:39;3.90;99.90
22698;DHT22;11516;51.612;7.510;2022-11-14T01:22:04;3.90;99.90
22698;DHT22;11516;51.612;7.510;2022-11-14T01:24:31;4.00;99.90
22698;DHT22;11516;51.612;7.510;2022-11-14T01:26:58;3.90;99.90
22698;DHT22;11516;51.612;7.510;2022-11-14T01:29:23;4.00;99.90
22698;DHT22;11516;51.612;7.510;2022-11-14T01:31:49;3.90;99.90
22698;DHT22;11516;51.612;7.510;2022-11-14T01:34:14;4.00;99.90
22698;DHT22;11516;51.612;7.510;2022-11-14T01:36:40;4.00;99.90
22698;DHT22;11516;51.612;7.510;2022-11-14T01:39:05;4.00;99.90
22698;DHT22;11516;51.612;7.510;2022-11-14T01:41:31;3.90;99.90
22698;DHT22;11516;51.612;7.510;2022-11-14T01:43:56;3.90;99.90
22698;DHT22;11516;51.612;7.510;2022-11-14T01:46:23;3.90;99.90
22698;DHT22;11516;51.612;7.510;2022-11-14T01:48:54;4.00;99.90
22698;DHT22;11516;51.612;7.510;2022-11-14T01:53:55;3.90;99.90
22698;DHT22;11516;51.612;7.510;2022-11-14T01:56:32;4.00;99.90
22698;DHT22;11516;51.612;7.510;2022-11-14T01:59:09;3.90;99.90
22698;DHT22;11516;51.612;7.510;2022-11-14T02:01:40;3.90;99.90
22698;DHT22;11516;51.612;7.510;2022-11-14T02:04:07;3.90;99.90
22698;DHT22;11516;51.612;7.510;2022-11-14T02:06:33;3.80;99.90
22698;DHT22;11516;51.612;7.510;2022-11-14T02:09:05;3.70;99.90
22698;DHT22;11516;51.612;7.510;2022-11-14T02:11:35;3.60;99.90
22698;DHT22;11516;51.612;7.510;2022-11-14T02:14:02;3.60;99.90
22698;DHT22;11516;51.612;7.510;2022-11-14T02:16:28;3.70;99.90
22698;DHT22;11516;51.612;7.510;2022-11-14T02:18:54;3.70;99.90
22698;DHT22;11516;51.612;7.510;2022-11-14T02:21:19;3.70;99.90
22698;DHT22;11516;51.612;7.510;2022-11-14T02:23:45;3.80;99.90
22698;DHT22;11516;51.612;7.510;2022-11-14T02:26:10;3.80;99.90
22698;DHT22;11516;51.612;7.510;2022-11-14T02:28:36;3.70;99.90
22698;DHT22;11516;51.612;7.510;2022-11-14T02:31:02;3.80;99.90
22698;DHT22;11516;51.612;7.510;2022-11-14T02:33:27;3.80;99.90
22698;DHT22;11516;51.612;7.510;2022-11-14T02:35:53;3.80;99.90
22698;DHT22;11516;51.612;7.510;2022-11-14T02:38:18;3.80;99.90
22698;DHT22;11516;51.612;7.510;2022-11-14T02:40:44;3.70;99.90
22698;DHT22;11516;51.612;7.510;2022-11-14T02:43:10;3.70;99.90
22698;DHT22;11516;51.612;7.510;2022-11-14T02:45:35;3.70;99.90
22698;DHT22;11516;51.612;7.510;2022-11-14T02:48:01;3.70;99.90
22698;DHT22;11516;51.612;7.510;2022-11-14T02:50:27;3.70;99.90
22698;DHT22;11516;51.612;7.510;2022-11-14T02:52:52;3.60;99.90
22698;DHT22;11516;51.612;7.510;2022-11-14T02:55:19;3.50;99.90
22698;DHT22;11516;51.612;7.510;2022-11-14T02:57:44;3.50;99.90
22698;DHT22;11516;51.612;7.510;2022-11-14T03:00:10;3.50;99.90
22698;DHT22;11516;51.612;7.510;2022-11-14T03:02:36;3.50;99.90
22698;DHT22;11516;51.612;7.510;2022-11-14T03:05:02;3.40;99.90
22698;DHT22;11516;51.612;7.510;2022-11-14T03:07:27;3.50;99.90
22698;DHT22;11516;51.612;7.510;2022-11-14T03:09:53;3.50;99.90
22698;DHT22;11516;51.612;7.510;2022-11-14T03:12:19;3.40;99.90
22698;DHT22;11516;51.612;7.510;2022-11-14T03:14:44;3.40;99.90
22698;DHT22;11516;51.612;7.510;2022-11-14T03:17:10;3.50;99.90
22698;DHT22;11516;51.612;7.510;2022-11-14T03:19:36;3.40;99.90
22698;DHT22;11516;51.612;7.510;2022-11-14T03:22:02;3.40;99.90
22698;DHT22;11516;51.612;7.510;2022-11-14T03:24:28;3.40;99.90
22698;DHT22;11516;51.612;7.510;2022-11-14T03:26:53;3.30;99.90
22698;DHT22;11516;51.612;7.510;2022-11-14T03:29:19;3.30;99.90
22698;DHT22;11516;51.612;7.510;2022-11-14T03:31:44;3.20;99.90
22698;DHT22;11516;51.612;7.510;2022-11-14T03:34:10;3.30;99.90
22698;DHT22;11516;51.612;7.510;2022-11-14T03:36:36;3.30;99.90
22698;DHT22;11516;51.612;7.510;2022-11-14T03:39:03;3.30;99.90
22698;DHT22;11516;51.612;7.510;2022-11-14T03:41:28;3.40;99.90
22698;DHT22;11516;51.612;7.510;2022-11-14T03:43:54;3.40;99.90
22698;DHT22;11516;51.612;7.510;2022-11-14T03:46:19;3.40;99.90
22698;DHT22;11516;51.612;7.510;2022-11-14T03:48:45;3.30;99.90
22698;DHT22;11516;51.612;7.510;2022-11-14T03:51:10;3.30;99.90
22698;DHT22;11516;51.612;7.510;2022-11-14T03:53:36;3.40;99.90
22698;DHT22;11516;51.612;7.510;2022-11-14T03:56:02;3.40;99.90
22698;DHT22;11516;51.612;7.510;2022-11-14T03:58:27;3.40;99.90
22698;DHT22;11516;51.612;7.510;2022-11-14T04:00:53;3.40;99.90
22698;DHT22;11516;51.612;7.510;2022-11-14T04:03:20;3.40;99.90
22698;DHT22;11516;51.612;7.510;2022-11-14T04:05:46;3.40;99.90
22698;DHT22;11516;51.612;7.510;2022-11-14T04:08:12;3.30;99.90
22698;DHT22;11516;51.612;7.510;2022-11-14T04:10:37;3.20;99.90
22698;DHT22;11516;51.612;7.510;2022-11-14T04:13:04;3.10;99.90
22698;DHT22;11516;51.612;7.510;2022-11-14T04:15:29;3.00;99.90
22698;DHT22;11516;51.612;7.510;2022-11-14T04:17:55;2.90;99.90
22698;DHT22;11516;51.612;7.510;2022-11-14T04:20:20;2.80;99.90
22698;DHT22;11516;51.612;7.510;2022-11-14T04:22:46;2.60;99.90
22698;DHT22;11516;51.612;7.510;2022-11-14T04:25:12;2.60;99.90
22698;DHT22;11516;51.612;7.510;2022-11-14T04:27:38;2.60;99.90
22698;DHT22;11516;51.612;7.510;2022-11-14T04:30:04;2.50;99.90
22698;DHT22;11516;51.612;7.510;2022-11-14T04:32:30;2.50;99.90
22698;DHT22;11516;51.612;7.510;2022-11-14T04:34:55;2.50;99.90
22698;DHT22;11516;51.612;7.510;2022-11-14T04:37:21;2.50;99.90
22698;DHT22;11516;51.612;7.510;2022-11-14T04:39:47;2.60;99.90
22698;DHT22;11516;51.612;7.510;2022-11-14T04:42:12;2.60;99.90
22698;DHT22;11516;51.612;7.510;2022-11-14T04:44:38;2.60;99.90
22698;DHT22;11516;51.612;7.510;2022-11-14T04:47:03;2.50;99.90
22698;DHT22;11516;51.612;7.510;2022-11-14T04:49:29;2.50;99.90
22698;DHT22;11516;51.612;7.510;2022-11-14T04:51:54;2.60;99.90
22698;DHT22;11516;51.612;7.510;2022-11-14T04:54:20;2.60;99.90
22698;DHT22;11516;51.612;7.510;2022-11-14T04:56:45;2.60;99.90
22698;DHT22;11516;51.612;7.510;2022-11-14T04:59:11;2.60;99.90
22698;DHT22;11516;51.612;7.510;2022-11-14T05:01:37;2.60;99.90
22698;DHT22;11516;51.612;7.510;2022-11-14T05:04:02;2.70;99.90
22698;DHT22;11516;51.612;7.510;2022-11-14T05:06:28;2.70;99.90
22698;DHT22;11516;51.612;7.510;2022-11-14T05:08:53;2.60;99.90
22698;DHT22;11516;51.612;7.510;2022-11-14T05:11:19;2.50;99.90
22698;DHT22;11516;51.612;7.510;2022-11-14T05:13:45;2.50;99.90
22698;DHT22;11516;51.612;7.510;2022-11-14T05:16:11;2.50;99.90
22698;DHT22;11516;51.612;7.510;2022-11-14T05:18:37;2.50;99.90
22698;DHT22;11516;51.612;7.510;2022-11-14T05:21:04;2.50;99.90
22698;DHT22;11516;51.612;7.510;2022-11-14T05:23:29;2.50;99.90
22698;DHT22;11516;51.612;7.510;2022-11-14T05:26:06;2.50;99.90
22698;DHT22;11516;51.612;7.510;2022-11-14T05:28:32;2.50;99.90
22698;DHT22;11516;51.612;7.510;2022-11-14T05:31:09;2.50;99.90
22698;DHT22;11516;51.612;7.510;2022-11-14T05:33:35;2.40;99.90
22698;DHT22;11516;51.612;7.510;2022-11-14T05:38:27;2.40;99.90
22698;DHT22;11516;51.612;7.510;2022-11-14T05:40:53;2.40;99.90
22698;DHT22;11516;51.612;7.510;2022-11-14T05:43:18;2.40;99.90
22698;DHT22;11516;51.612;7.510;2022-11-14T05:45:44;2.50;99.90
22698;DHT22;11516;51.612;7.510;2022-11-14T05:48:09;2.50;99.90
22698;DHT22;11516;51.612;7.510;2022-11-14T05:50:35;2.50;99.90
22698;DHT22;11516;51.612;7.510;2022-11-14T05:53:00;2.50;99.90
22698;DHT22;11516;51.612;7.510;2022-11-14T05:55:26;2.60;99.90
22698;DHT22;11516;51.612;7.510;2022-11-14T05:57:51;2.60;99.90
22698;DHT22;11516;51.612;7.510;2022-11-14T06:00:19;2.60;99.90
22698;DHT22;11516;51.612;7.510;2022-11-14T06:02:44;2.60;99.90
22698;DHT22;11516;51.612;7.510;2022-11-14T06:05:10;2.60;99.90
22698;DHT22;11516;51.612;7.510;2022-11-14T06:07:36;2.50;99.90
22698;DHT22;11516;51.612;7.510;2022-11-14T06:10:03;2.70;99.90
22698;DHT22;11516;51.612;7.510;2022-11-14T06:12:31;2.60;99.90
22698;DHT22;11516;51.612;7.510;2022-11-14T06:14:56;2.60;99.90
22698;DHT22;11516;51.612;7.510;2022-11-14T06:17:22;2.50;99.90
22698;DHT22;11516;51.612;7.510;2022-11-14T06:19:47;2.60;99.90
22698;DHT22;11516;51.612;7.510;2022-11-14T06:22:13;2.50;99.90
22698;DHT22;11516;51.612;7.510;2022-11-14T06:24:38;2.60;99.90
22698;DHT22;11516;51.612;7.510;2022-11-14T06:27:04;2.50;99.90
22698;DHT22;11516;51.612;7.510;2022-11-14T06:29:29;2.60;99.90
22698;DHT22;11516;51.612;7.510;2022-11-14T06:31:55;2.60;99.90
22698;DHT22;11516;51.612;7.510;2022-11-14T06:34:20;2.60;99.90
22698;DHT22;11516;51.612;7.510;2022-11-14T06:36:46;2.70;99.90
22698;DHT22;11516;51.612;7.510;2022-11-14T06:39:11;2.60;99.90
22698;DHT22;11516;51.612;7.510;2022-11-14T06:41:37;2.60;99.90
22698;DHT22;11516;51.612;7.510;2022-11-14T06:44:02;2.70;99.90
22698;DHT22;11516;51.612;7.510;2022-11-14T06:46:28;2.80;99.90
22698;DHT22;11516;51.612;7.510;2022-11-14T06:48:53;2.70;99.90
22698;DHT22;11516;51.612;7.510;2022-11-14T06:51:19;2.70;99.90
22698;DHT22;11516;51.612;7.510;2022-11-14T06:53:44;2.70;99.90
22698;DHT22;11516;51.612;7.510;2022-11-14T06:56:13;2.70;99.90
22698;DHT22;11516;51.612;7.510;2022-11-14T06:58:43;2.70;99.90
22698;DHT22;11516;51.612;7.510;2022-11-14T07:01:12;2.80;99.90
22698;DHT22;11516;51.612;7.510;2022-11-14T07:03:38;2.90;99.90
22698;DHT22;11516;51.612;7.510;2022-11-14T07:06:04;2.90;99.90
22698;DHT22;11516;51.612;7.510;2022-11-14T07:08:31;3.00;99.90
22698;DHT22;11516;51.612;7.510;2022-11-14T07:11:20;2.90;99.90
22698;DHT22;11516;51.612;7.510;2022-11-14T07:13:54;2.90;99.90
22698;DHT22;11516;51.612;7.510;2022-11-14T07:16:22;3.00;99.90
22698;DHT22;11516;51.612;7.510;2022-11-14T07:18:48;2.90;99.90
22698;DHT22;11516;51.612;7.510;2022-11-14T07:21:14;2.90;99.90
22698;DHT22;11516;51.612;7.510;2022-11-14T07:23:39;2.90;99.90
22698;DHT22;11516;51.612;7.510;2022-11-14T07:26:07;2.90;99.90
22698;DHT22;11516;51.612;7.510;2022-11-14T07:28:35;2.90;99.90
22698;DHT22;11516;51.612;7.510;2022-11-14T07:31:14;2.90;99.90
22698;DHT22;11516;51.612;7.510;2022-11-14T07:33:41;2.90;99.90
22698;DHT22;11516;51.612;7.510;2022-11-14T07:36:08;2.90;99.90
22698;DHT22;11516;51.612;7.510;2022-11-14T07:38:34;3.00;99.90
22698;DHT22;11516;51.612;7.510;2022-11-14T07:41:03;3.10;99.90
22698;DHT22;11516;51.612;7.510;2022-11-14T07:43:28;3.10;99.90
22698;DHT22;11516;51.612;7.510;2022-11-14T07:46:01;3.20;99.90
22698;DHT22;11516;51.612;7.510;2022-11-14T07:48:28;3.20;99.90
22698;DHT22;11516;51.612;7.510;2022-11-14T07:50:57;3.30;99.90
22698;DHT22;11516;51.612;7.510;2022-11-14T07:53:23;3.30;99.90
22698;DHT22;11516;51.612;7.510;2022-11-14T07:55:49;3.40;99.90
22698;DHT22;11516;51.612;7.510;2022-11-14T07:58:14;3.50;99.90
22698;DHT22;11516;51.612;7.510;2022-11-14T08:00:40;3.40;99.90
22698;DHT22;11516;51.612;7.510;2022-11-14T08:03:06;3.50;99.90
22698;DHT22;11516;51.612;7.510;2022-11-14T08:05:32;3.50;99.90
22698;DHT22;11516;51.612;7.510;2022-11-14T08:07:58;3.60;99.90
22698;DHT22;11516;51.612;7.510;2022-11-14T08:10:23;3.60;99.90
22698;DHT22;11516;51.612;7.510;2022-11-14T08:12:57;3.70;99.90
22698;DHT22;11516;51.612;7.510;2022-11-14T08:15:23;3.70;99.90
22698;DHT22;11516;51.612;7.510;2022-11-14T08:17:48;3.80;99.90
22698;DHT22;11516;51.612;7.510;2022-11-14T08:20:14;3.80;99.90
22698;DHT22;11516;51.612;7.510;2022-11-14T08:22:40;3.90;99.90
22698;DHT22;11516;51.612;7.510;2022-11-14T08:25:05;4.00;99.90
22698;DHT22;11516;51.612;7.510;2022-11-14T08:27:31;4.00;99.90
22698;DHT22;11516;51.612;7.510;2022-11-14T08:29:57;4.10;99.90
22698;DHT22;11516;51.612;7.510;2022-11-14T08:32:22;4.20;99.90
22698;DHT22;11516;51.612;7.510;2022-11-14T08:34:48;4.30;99.90
22698;DHT22;11516;51.612;7.510;2022-11-14T08:37:13;4.30;99.90
22698;DHT22;11516;51.612;7.510;2022-11-14T08:39:39;4.30;99.90
22698;DHT22;11516;51.612;7.510;2022-11-14T08:42:04;4.40;99.90
22698;DHT22;11516;51.612;7.510;2022-11-14T08:44:30;4.50;99.90
22698;DHT22;11516;51.612;7.510;2022-11-14T08:46:55;4.50;99.90
22698;DHT22;11516;51.612;7.510;2022-11-14T08:49:24;4.50;99.90
22698;DHT22;11516;51.612;7.510;2022-11-14T08:51:51;4.60;99.90
22698;DHT22;11516;51.612;7.510;2022-11-14T08:54:17;4.60;99.90
22698;DHT22;11516;51.612;7.510;2022-11-14T08:56:43;4.70;99.90
22698;DHT22;11516;51.612;7.510;2022-11-14T08:59:08;4.80;99.90
22698;DHT22;11516;51.612;7.510;2022-11-14T09:01:34;4.90;99.90
22698;DHT22;11516;51.612;7.510;2022-11-14T09:03:59;5.00;99.90
22698;DHT22;11516;51.612;7.510;2022-11-14T09:06:25;5.00;99.90
22698;DHT22;11516;51.612;7.510;2022-11-14T09:08:50;5.10;99.90
22698;DHT22;11516;51.612;7.510;2022-11-14T09:11:16;5.10;99.90
22698;DHT22;11516;51.612;7.510;2022-11-14T09:13:42;5.20;99.90
22698;DHT22;11516;51.612;7.510;2022-11-14T09:16:07;5.20;99.90
22698;DHT22;11516;51.612;7.510;2022-11-14T09:18:33;5.30;99.90
22698;DHT22;11516;51.612;7.510;2022-11-14T09:21:05;5.40;99.90
22698;DHT22;11516;51.612;7.510;2022-11-14T09:23:31;5.50;99.90
22698;DHT22;11516;51.612;7.510;2022-11-14T09:25:56;5.50;99.90
22698;DHT22;11516;51.612;7.510;2022-11-14T09:28:23;5.70;99.90
22698;DHT22;11516;51.612;7.510;2022-11-14T09:30:49;5.80;99.90
22698;DHT22;11516;51.612;7.510;2022-11-14T09:33:15;6.00;99.90
22698;DHT22;11516;51.612;7.510;2022-11-14T09:35:40;6.00;99.90
22698;DHT22;11516;51.612;7.510;2022-11-14T09:38:08;6.20;99.90
22698;DHT22;11516;51.612;7.510;2022-11-14T09:41:09;6.20;99.90
22698;DHT22;11516;51.612;7.510;2022-11-14T09:46:42;6.50;99.90
22698;DHT22;11516;51.612;7.510;2022-11-14T09:49:37;6.50;99.90
22698;DHT22;11516;51.612;7.510;2022-11-14T09:55:10;6.70;99.90
22698;DHT22;11516;51.612;7.510;2022-11-14T09:57:38;6.70;99.90
22698;DHT22;11516;51.612;7.510;2022-11-14T10:00:14;6.80;99.90
22698;DHT22;11516;51.612;7.510;2022-11-14T10:08:55;7.20;99.90
22698;DHT22;11516;51.612;7.510;2022-11-14T10:11:51;7.40;99.90
22698;DHT22;11516;51.612;7.510;2022-11-14T10:23:04;8.50;99.90
22698;DHT22;11516;51.612;7.510;2022-11-14T10:28:26;9.00;99.90
22698;DHT22;11516;51.612;7.510;2022-11-14T10:31:18;9.10;99.90
22698;DHT22;11516;51.612;7.510;2022-11-14T10:33:56;9.20;99.90
22698;DHT22;11516;51.612;7.510;2022-11-14T10:36:44;9.40;99.90
22698;DHT22;11516;51.612;7.510;2022-11-14T10:39:25;9.60;99.90
22698;DHT22;11516;51.612;7.510;2022-11-14T10:41:56;9.70;99.90
22698;DHT22;11516;51.612;7.510;2022-11-14T10:44:29;9.80;99.90
22698;DHT22;11516;51.612;7.510;2022-11-14T10:47:01;9.90;99.90
22698;DHT22;11516;51.612;7.510;2022-11-14T10:49:31;9.80;99.90
22698;DHT22;11516;51.612;7.510;2022-11-14T10:52:04;10.00;99.90
22698;DHT22;11516;51.612;7.510;2022-11-14T10:54:46;10.00;99.90
22698;DHT22;11516;51.612;7.510;2022-11-14T10:57:15;10.00;99.90
22698;DHT22;11516;51.612;7.510;2022-11-14T10:59:41;10.10;99.90
22698;DHT22;11516;51.612;7.510;2022-11-14T11:02:10;10.20;99.90
22698;DHT22;11516;51.612;7.510;2022-11-14T11:04:38;10.30;99.90
22698;DHT22;11516;51.612;7.510;2022-11-14T11:09:37;10.40;99.90
22698;DHT22;11516;51.612;7.510;2022-11-14T11:15:17;10.50;99.90
22698;DHT22;11516;51.612;7.510;2022-11-14T11:17:54;10.50;99.90
22698;DHT22;11516;51.612;7.510;2022-11-14T11:20:27;10.50;99.90
22698;DHT22;11516;51.612;7.510;2022-11-14T11:23:17;10.60;99.90
22698;DHT22;11516;51.612;7.510;2022-11-14T11:25:42;11.30;99.90
22698;DHT22;11516;51.612;7.510;2022-11-14T11:28:17;12.30;99.90
22698;DHT22;11516;51.612;7.510;2022-11-14T11:31:00;12.90;99.90
22698;DHT22;11516;51.612;7.510;2022-11-14T11:33:29;12.70;99.90
22698;DHT22;11516;51.612;7.510;2022-11-14T11:35:58;12.50;99.90
22698;DHT22;11516;51.612;7.510;2022-11-14T11:38:27;12.70;99.90
22698;DHT22;11516;51.612;7.510;2022-11-14T11:41:05;13.30;99.90
22698;DHT22;11516;51.612;7.510;2022-11-14T11:43:39;14.00;99.90
22698;DHT22;11516;51.612;7.510;2022-11-14T11:46:23;14.40;99.90
22698;DHT22;11516;51.612;7.510;2022-11-14T11:48:54;14.70;99.90
22698;DHT22;11516;51.612;7.510;2022-11-14T11:51:25;14.90;99.90
22698;DHT22;11516;51.612;7.510;2022-11-14T11:54:10;15.10;99.90
22698;DHT22;11516;51.612;7.510;2022-11-14T11:56:38;14.90;99.90
22698;DHT22;11516;51.612;7.510;2022-11-14T11:59:34;14.60;99.90
22698;DHT22;11516;51.612;7.510;2022-11-14T12:02:16;14.50;99.90
22698;DHT22;11516;51.612;7.510;2022-11-14T12:04:44;14.40;99.90
22698;DHT22;11516;51.612;7.510;2022-11-14T12:07:15;14.00;99.90
22698;DHT22;11516;51.612;7.510;2022-11-14T12:09:42;13.60;99.90
22698;DHT22;11516;51.612;7.510;2022-11-14T12:12:45;13.60;99.90
22698;DHT22;11516;51.612;7.510;2022-11-14T12:15:24;13.80;99.90
22698;DHT22;11516;51.612;7.510;2022-11-14T12:21:11;14.10;99.90
22698;DHT22;11516;51.612;7.510;2022-11-14T12:23:51;14.10;99.90
22698;DHT22;11516;51.612;7.510;2022-11-14T12:31:56;14.70;99.90
22698;DHT22;11516;51.612;7.510;2022-11-14T12:34:26;14.90;99.90
22698;DHT22;11516;51.612;7.510;2022-11-14T12:36:53;14.70;99.90
22698;DHT22;11516;51.612;7.510;2022-11-14T12:39:25;14.40;99.90
22698;DHT22;11516;51.612;7.510;2022-11-14T12:42:06;14.60;99.90
22698;DHT22;11516;51.612;7.510;2022-11-14T12:44:36;15.00;99.90
22698;DHT22;11516;51.612;7.510;2022-11-14T12:52:49;15.80;99.90
22698;DHT22;11516;51.612;7.510;2022-11-14T12:57:56;16.00;99.90
22698;DHT22;11516;51.612;7.510;2022-11-14T13:00:27;15.70;99.90
22698;DHT22;11516;51.612;7.510;2022-11-14T13:03:07;15.20;99.90
22698;DHT22;11516;51.612;7.510;2022-11-14T13:05:53;14.50;99.90
22698;DHT22;11516;51.612;7.510;2022-11-14T13:08:46;13.90;99.90
22698;DHT22;11516;51.612;7.510;2022-11-14T13:11:34;13.80;99.90
22698;DHT22;11516;51.612;7.510;2022-11-14T13:14:19;14.10;99.90
22698;DHT22;11516;51.612;7.510;2022-11-14T13:20:13;14.40;99.90
22698;DHT22;11516;51.612;7.510;2022-11-14T13:33:43;12.70;99.90
22698;DHT22;11516;51.612;7.510;2022-11-14T13:38:55;13.30;99.90
22698;DHT22;11516;51.612;7.510;2022-11-14T13:41:32;13.90;99.90
22698;DHT22;11516;51.612;7.510;2022-11-14T13:52:11;14.40;99.90
22698;DHT22;11516;51.612;7.510;2022-11-14T13:54:49;13.80;99.90
22698;DHT22;11516;51.612;7.510;2022-11-14T14:00:13;12.80;99.90
22698;DHT22;11516;51.612;7.510;2022-11-14T14:03:05;12.50;99.90
22698;DHT22;11516;51.612;7.510;2022-11-14T14:05:41;12.30;99.90
22698;DHT22;11516;51.612;7.510;2022-11-14T14:17:36;11.90;99.90
22698;DHT22;11516;51.612;7.510;2022-11-14T14:20:30;11.90;99.90
22698;DHT22;11516;51.612;7.510;2022-11-14T14:26:30;13.00;99.90
22698;DHT22;11516;51.612;7.510;2022-11-14T14:31:42;12.80;99.90
22698;DHT22;11516;51.612;7.510;2022-11-14T14:36:51;12.20;99.90
22698;DHT22;11516;51.612;7.510;2022-11-14T14:41:45;12.00;99.90
22698;DHT22;11516;51.612;7.510;2022-11-14T14:44:31;11.80;99.90
22698;DHT22;11516;51.612;7.510;2022-11-14T14:46:57;11.80;99.90
22698;DHT22;11516;51.612;7.510;2022-11-14T14:49:35;11.70;99.90
22698;DHT22;11516;51.612;7.510;2022-11-14T14:52:01;11.60;99.90
22698;DHT22;11516;51.612;7.510;2022-11-14T14:54:28;11.60;99.90
22698;DHT22;11516;51.612;7.510;2022-11-14T14:56:58;11.50;99.90
22698;DHT22;11516;51.612;7.510;2022-11-14T14:59:28;11.50;99.90
22698;DHT22;11516;51.612;7.510;2022-11-14T15:01:55;11.50;99.90
22698;DHT22;11516;51.612;7.510;2022-11-14T15:04:24;11.50;99.90
22698;DHT22;11516;51.612;7.510;2022-11-14T15:06:51;11.50;99.90
22698;DHT22;11516;51.612;7.510;2022-11-14T15:09:19;11.40;99.90
22698;DHT22;11516;51.612;7.510;2022-11-14T15:11:50;11.50;99.90
22698;DHT22;11516;51.612;7.510;2022-11-14T15:14:23;11.50;99.90
22698;DHT22;11516;51.612;7.510;2022-11-14T15:16:49;11.50;99.90
22698;DHT22;11516;51.612;7.510;2022-11-14T15:19:19;11.50;99.90
22698;DHT22;11516;51.612;7.510;2022-11-14T15:22:03;11.50;99.90
22698;DHT22;11516;51.612;7.510;2022-11-14T15:24:29;11.40;99.90
22698;DHT22;11516;51.612;7.510;2022-11-14T15:26:55;11.40;99.90
22698;DHT22;11516;51.612;7.510;2022-11-14T15:29:23;11.40;99.90
22698;DHT22;11516;51.612;7.510;2022-11-14T15:31:50;11.40;99.90
22698;DHT22;11516;51.612;7.510;2022-11-14T15:34:28;11.40;99.90
22698;DHT22;11516;51.612;7.510;2022-11-14T15:39:35;11.30;99.90
22698;DHT22;11516;51.612;7.510;2022-11-14T15:44:39;11.30;99.90
22698;DHT22;11516;51.612;7.510;2022-11-14T15:47:29;11.30;99.90
22698;DHT22;11516;51.612;7.510;2022-11-14T15:50:22;11.20;99.90
22698;DHT22;11516;51.612;7.510;2022-11-14T15:53:13;11.10;99.90
22698;DHT22;11516;51.612;7.510;2022-11-14T15:55:40;11.10;99.90
22698;DHT22;11516;51.612;7.510;2022-11-14T15:58:10;11.10;99.90
22698;DHT22;11516;51.612;7.510;2022-11-14T16:00:41;11.10;99.90
22698;DHT22;11516;51.612;7.510;2022-11-14T16:03:10;11.00;99.90
22698;DHT22;11516;51.612;7.510;2022-11-14T16:05:36;11.00;99.90
22698;DHT22;11516;51.612;7.510;2022-11-14T16:08:02;11.00;99.90
22698;DHT22;11516;51.612;7.510;2022-11-14T16:10:27;10.90;99.90
22698;DHT22;11516;51.612;7.510;2022-11-14T16:12:53;10.90;99.90
22698;DHT22;11516;51.612;7.510;2022-11-14T16:15:20;10.90;99.90
22698;DHT22;11516;51.612;7.510;2022-11-14T16:17:47;10.90;99.90
22698;DHT22;11516;51.612;7.510;2022-11-14T16:20:16;10.90;99.90
22698;DHT22;11516;51.612;7.510;2022-11-14T16:22:43;10.90;99.90
22698;DHT22;11516;51.612;7.510;2022-11-14T16:25:16;10.80;99.90
22698;DHT22;11516;51.612;7.510;2022-11-14T16:27:43;10.80;99.90
22698;DHT22;11516;51.612;7.510;2022-11-14T16:30:11;10.70;99.90
22698;DHT22;11516;51.612;7.510;2022-11-14T16:32:36;10.70;99.90
22698;DHT22;11516;51.612;7.510;2022-11-14T16:35:02;10.70;99.90
22698;DHT22;11516;51.612;7.510;2022-11-14T16:37:27;10.70;99.90
22698;DHT22;11516;51.612;7.510;2022-11-14T16:39:53;10.60;99.90
22698;DHT22;11516;51.612;7.510;2022-11-14T16:42:19;10.60;99.90
22698;DHT22;11516;51.612;7.510;2022-11-14T16:44:44;10.60;99.90
22698;DHT22;11516;51.612;7.510;2022-11-14T16:47:13;10.60;99.90
22698;DHT22;11516;51.612;7.510;2022-11-14T16:49:39;10.50;99.90
22698;DHT22;11516;51.612;7.510;2022-11-14T16:52:04;10.50;99.90
22698;DHT22;11516;51.612;7.510;2022-11-14T16:54:32;10.50;99.90
22698;DHT22;11516;51.612;7.510;2022-11-14T16:56:58;10.50;99.90
22698;DHT22;11516;51.612;7.510;2022-11-14T16:59:23;10.50;99.90
22698;DHT22;11516;51.612;7.510;2022-11-14T17:01:49;10.50;99.90
22698;DHT22;11516;51.612;7.510;2022-11-14T17:04:14;10.40;99.90
22698;DHT22;11516;51.612;7.510;2022-11-14T17:06:40;10.40;99.90
22698;DHT22;11516;51.612;7.510;2022-11-14T17:09:06;10.40;99.90
22698;DHT22;11516;51.612;7.510;2022-11-14T17:11:31;10.40;99.90
22698;DHT22;11516;51.612;7.510;2022-11-14T17:13:57;10.40;99.90
22698;DHT22;11516;51.612;7.510;2022-11-14T17:16:22;10.30;99.90
22698;DHT22;11516;51.612;7.510;2022-11-14T17:18:53;10.30;99.90
22698;DHT22;11516;51.612;7.510;2022-11-14T17:21:19;10.30;99.90
22698;DHT22;11516;51.612;7.510;2022-11-14T17:23:45;10.30;99.90
22698;DHT22;11516;51.612;7.510;2022-11-14T17:26:11;10.30;99.90
22698;DHT22;11516;51.612;7.510;2022-11-14T17:28:37;10.30;99.90
22698;DHT22;11516;51.612;7.510;2022-11-14T17:31:08;10.30;99.90
22698;DHT22;11516;51.612;7.510;2022-11-14T17:33:35;10.30;99.90
22698;DHT22;11516;51.612;7.510;2022-11-14T17:36:05;10.30;99.90